Time,TemperatureF,DewpointF,PressureIn,WindDirection,WindDirectionDegrees,WindSpeedMPH,WindSpeedGustMPH,Humidity,HourlyPrecipIn,Conditions,Clouds,dailyrainin,SoftwareType,DateUTC
2013-05-15 00:02:00,62.0,40.0,29.90,SSE,151,0.0,5.0,45,0.00,,,0.00,,2013-05-15 06:02:00,
2013-05-15 00:11:00,62.0,40.0,29.90,SSE,151,0.0,5.0,45,0.00,,,0.00,,2013-05-15 06:11:00,
2013-05-15 00:21:00,63.0,41.0,29.90,West,261,9.0,11.0,45,0.00,,,0.00,,2013-05-15 06:21:00,
2013-05-15 00:31:00,60.0,38.0,29.90,West,268,12.0,18.0,44,0.00,,,0.00,,2013-05-15 06:31:00,
2013-05-15 00:41:00,60.0,38.0,29.90,West,268,12.0,18.0,44,0.00,,,0.00,,2013-05-15 06:41:00,
2013-05-15 00:52:00,59.0,37.0,29.90,West,270,20.0,27.0,43,0.00,,,0.00,,2013-05-15 06:52:00,
2013-05-15 01:01:00,58.0,33.0,29.91,West,266,21.0,27.0,39,0.00,,,0.00,,2013-05-15 07:01:00,
2013-05-15 01:11:00,58.0,33.0,29.91,West,266,21.0,27.0,39,0.00,,,0.00,,2013-05-15 07:11:00,
2013-05-15 01:21:00,58.0,32.0,29.91,West,280,19.0,25.0,37,0.00,,,0.00,,2013-05-15 07:21:00,
2013-05-15 01:31:00,58.0,31.0,29.91,West,265,23.0,30.0,35,0.00,,,0.00,,2013-05-15 07:31:00,
2013-05-15 01:41:00,58.0,31.0,29.91,West,265,23.0,30.0,35,0.00,,,0.00,,2013-05-15 07:41:00,
2013-05-15 01:52:00,57.0,30.0,29.91,West,276,23.0,32.0,35,0.00,,,0.00,,2013-05-15 07:52:00,
2013-05-15 02:02:00,57.0,30.0,29.91,West,279,21.0,31.0,35,0.00,,,0.00,,2013-05-15 08:02:00,
2013-05-15 02:12:00,57.0,30.0,29.91,West,279,21.0,31.0,35,0.00,,,0.00,,2013-05-15 08:12:00,
2013-05-15 02:21:00,58.0,30.0,29.91,West,281,26.0,31.0,34,0.00,,,0.00,,2013-05-15 08:21:00,
2013-05-15 02:31:00,57.0,29.0,29.91,West,268,26.0,33.0,34,0.00,,,0.00,,2013-05-15 08:31:00,
2013-05-15 02:41:00,57.0,29.0,29.91,West,268,26.0,33.0,34,0.00,,,0.00,,2013-05-15 08:41:00,
2013-05-15 02:53:00,56.0,28.0,29.91,West,277,26.0,33.0,34,0.00,,,0.00,,2013-05-15 08:53:00,
2013-05-15 03:01:00,56.0,29.0,29.91,WNW,283,25.0,31.0,35,0.00,,,0.00,,2013-05-15 09:01:00,
2013-05-15 03:11:00,56.0,29.0,29.91,WNW,283,25.0,31.0,35,0.00,,,0.00,,2013-05-15 09:11:00,
2013-05-15 03:21:00,56.0,29.0,29.91,WNW,288,27.0,32.0,35,0.00,,,0.00,,2013-05-15 09:21:00,
2013-05-15 03:32:00,56.0,29.0,29.91,West,279,24.0,33.0,35,0.00,,,0.00,,2013-05-15 09:32:00,
2013-05-15 03:42:00,56.0,29.0,29.91,West,279,24.0,33.0,35,0.00,,,0.00,,2013-05-15 09:42:00,
2013-05-15 03:53:00,56.0,29.0,29.92,West,275,25.0,34.0,35,0.00,,,0.00,,2013-05-15 09:53:00,
2013-05-15 04:02:00,55.0,28.0,29.93,NW,307,21.0,32.0,35,0.00,,,0.00,,2013-05-15 10:02:00,
2013-05-15 04:12:00,55.0,28.0,29.93,NW,307,21.0,32.0,35,0.00,,,0.00,,2013-05-15 10:12:00,
2013-05-15 04:22:00,54.0,26.0,29.93,WNW,290,25.0,31.0,34,0.00,,,0.00,,2013-05-15 10:22:00,
2013-05-15 04:32:00,54.0,26.0,29.94,WNW,300,23.0,33.0,34,0.00,,,0.00,,2013-05-15 10:32:00,
2013-05-15 04:42:00,54.0,26.0,29.94,WNW,300,23.0,33.0,34,0.00,,,0.00,,2013-05-15 10:42:00,
2013-05-15 04:52:00,53.0,26.0,29.94,WNW,299,20.0,26.0,35,0.00,,,0.00,,2013-05-15 10:52:00,
2013-05-15 05:03:00,53.0,26.0,29.94,NW,308,20.0,28.0,35,0.00,,,0.00,,2013-05-15 11:03:00,
2013-05-15 05:22:00,52.0,26.0,29.95,WNW,293,18.0,28.0,36,0.00,,,0.00,,2013-05-15 11:22:00,
2013-05-15 05:32:00,52.0,25.0,29.95,WNW,291,19.0,25.0,34,0.00,,,0.00,,2013-05-15 11:32:00,
2013-05-15 05:43:00,52.0,25.0,29.95,WNW,291,19.0,25.0,34,0.00,,,0.00,,2013-05-15 11:43:00,
2013-05-15 05:57:00,52.0,25.0,29.96,WNW,291,18.0,24.0,34,0.00,,,0.00,,2013-05-15 11:57:00,
2013-05-15 06:03:00,51.0,24.0,29.96,WNW,290,19.0,23.0,35,0.00,,,0.00,,2013-05-15 12:03:00,
2013-05-15 06:12:00,51.0,24.0,29.96,WNW,290,19.0,23.0,35,0.00,,,0.00,,2013-05-15 12:12:00,
2013-05-15 06:22:00,51.0,24.0,29.97,WNW,289,20.0,26.0,35,0.00,,,0.00,,2013-05-15 12:22:00,
2013-05-15 06:33:00,51.0,24.0,29.97,WNW,303,18.0,23.0,35,0.00,,,0.00,,2013-05-15 12:33:00,
2013-05-15 06:42:00,51.0,24.0,29.97,WNW,303,18.0,23.0,35,0.00,,,0.00,,2013-05-15 12:42:00,
2013-05-15 06:56:00,51.0,24.0,29.98,WNW,283,19.0,24.0,34,0.00,,,0.00,,2013-05-15 12:56:00,
2013-05-15 07:02:00,51.0,24.0,29.98,WNW,293,15.0,20.0,34,0.00,,,0.00,,2013-05-15 13:02:00,
2013-05-15 07:12:00,51.0,24.0,29.98,WNW,293,15.0,20.0,34,0.00,,,0.00,,2013-05-15 13:12:00,
2013-05-15 07:23:00,52.0,25.0,29.99,WNW,294,14.0,19.0,34,0.00,,,0.00,,2013-05-15 13:23:00,
2013-05-15 07:43:00,53.0,25.0,29.99,WNW,302,13.0,19.0,33,0.00,,,0.00,,2013-05-15 13:43:00,
2013-05-15 07:57:00,54.0,26.0,30.00,WNW,296,11.0,16.0,33,0.00,,,0.00,,2013-05-15 13:57:00,
2013-05-15 08:02:00,55.0,25.0,30.00,WNW,291,11.0,14.0,31,0.00,,,0.00,,2013-05-15 14:02:00,
2013-05-15 08:11:00,55.0,25.0,30.00,WNW,291,11.0,14.0,31,0.00,,,0.00,,2013-05-15 14:11:00,
2013-05-15 08:34:00,57.0,26.0,30.00,NW,312,10.0,14.0,30,0.00,,,0.00,,2013-05-15 14:34:00,
2013-05-15 08:42:00,57.0,26.0,30.00,NW,312,10.0,14.0,30,0.00,,,0.00,,2013-05-15 14:42:00,
2013-05-15 08:55:00,58.0,27.0,30.00,West,275,9.0,12.0,30,0.00,,,0.00,,2013-05-15 14:55:00,
2013-05-15 09:02:00,59.0,27.0,30.00,WNW,290,7.0,11.0,29,0.00,,,0.00,,2013-05-15 15:02:00,
2013-05-15 09:12:00,59.0,27.0,30.00,WNW,290,7.0,11.0,29,0.00,,,0.00,,2013-05-15 15:12:00,
2013-05-15 09:23:00,60.0,28.0,30.00,South,186,1.0,7.0,29,0.00,,,0.00,,2013-05-15 15:23:00,
2013-05-15 09:33:00,62.0,29.0,30.00,SE,136,3.0,6.0,29,0.00,,,0.00,,2013-05-15 15:33:00,
2013-05-15 09:43:00,62.0,29.0,30.00,SE,136,3.0,6.0,29,0.00,,,0.00,,2013-05-15 15:43:00,
2013-05-15 09:57:00,61.0,29.0,30.00,ESE,121,1.0,7.0,29,0.00,,,0.00,,2013-05-15 15:57:00,
2013-05-15 10:03:00,61.0,28.0,30.00,SE,139,3.0,6.0,28,0.00,,,0.00,,2013-05-15 16:03:00,
2013-05-15 10:14:00,61.0,28.0,30.00,SE,139,3.0,6.0,28,0.00,,,0.00,,2013-05-15 16:14:00,
2013-05-15 10:24:00,62.0,30.0,30.00,ESE,108,1.0,7.0,30,0.00,,,0.00,,2013-05-15 16:24:00,
2013-05-15 10:33:00,63.0,29.0,29.99,East,85,0.0,0.0,28,0.00,,,0.00,,2013-05-15 16:33:00,
2013-05-15 10:43:00,63.0,29.0,29.99,East,85,0.0,0.0,28,0.00,,,0.00,,2013-05-15 16:43:00,
2013-05-15 10:55:00,63.0,30.0,29.99,South,178,1.0,6.0,29,0.00,,,0.00,,2013-05-15 16:55:00,
2013-05-15 11:12:00,65.0,30.0,29.99,SSE,151,2.0,8.0,27,0.00,,,0.00,,2013-05-15 17:12:00,
2013-05-15 11:23:00,64.0,31.0,29.99,ESE,121,5.0,8.0,29,0.00,,,0.00,,2013-05-15 17:23:00,
2013-05-15 11:32:00,64.0,30.0,29.98,ESE,123,7.0,11.0,28,0.00,,,0.00,,2013-05-15 17:32:00,
2013-05-15 11:43:00,64.0,30.0,29.98,ESE,123,7.0,11.0,28,0.00,,,0.00,,2013-05-15 17:43:00,
2013-05-15 11:57:00,65.0,31.0,29.98,SE,134,3.0,7.0,28,0.00,,,0.00,,2013-05-15 17:57:00,
2013-05-15 12:03:00,66.0,32.0,29.97,East,82,2.0,7.0,28,0.00,,,0.00,,2013-05-15 18:03:00,
2013-05-15 12:11:00,66.0,32.0,29.97,East,82,2.0,7.0,28,0.00,,,0.00,,2013-05-15 18:11:00,
2013-05-15 12:23:00,66.0,31.0,29.97,SSE,165,2.0,9.0,27,0.00,,,0.00,,2013-05-15 18:23:00,
2013-05-15 12:43:00,67.0,32.0,29.96,ESE,112,2.0,7.0,27,0.00,,,0.00,,2013-05-15 18:43:00,
2013-05-15 12:55:00,68.0,31.0,29.95,ESE,121,1.0,6.0,25,0.00,,,0.00,,2013-05-15 18:55:00,
2013-05-15 13:03:00,69.0,32.0,29.95,SE,134,0.0,7.0,25,0.00,,,0.00,,2013-05-15 19:03:00,
2013-05-15 13:23:00,69.0,33.0,29.94,SE,144,1.0,10.0,26,0.00,,,0.00,,2013-05-15 19:23:00,
2013-05-15 13:33:00,69.0,33.0,29.94,East,81,1.0,7.0,26,0.00,,,0.00,,2013-05-15 19:33:00,
2013-05-15 13:42:00,69.0,33.0,29.94,East,81,1.0,7.0,26,0.00,,,0.00,,2013-05-15 19:42:00,
2013-05-15 13:55:00,69.0,32.0,29.93,ESE,109,2.0,9.0,25,0.00,,,0.00,,2013-05-15 19:55:00,
2013-05-15 14:02:00,70.0,32.0,29.92,NNE,26,2.0,8.0,24,0.00,,,0.00,,2013-05-15 20:02:00,
2013-05-15 14:12:00,70.0,32.0,29.92,NNE,26,2.0,8.0,24,0.00,,,0.00,,2013-05-15 20:12:00,
2013-05-15 14:22:00,72.0,33.0,29.91,East,81,2.0,7.0,24,0.00,,,0.00,,2013-05-15 20:22:00,
2013-05-15 14:32:00,71.0,31.0,29.90,NE,38,1.0,6.0,23,0.00,,,0.00,,2013-05-15 20:32:00,
2013-05-15 14:43:00,71.0,31.0,29.90,NE,38,1.0,6.0,23,0.00,,,0.00,,2013-05-15 20:43:00,
2013-05-15 14:54:00,73.0,34.0,29.89,ESE,112,4.0,8.0,24,0.00,,,0.00,,2013-05-15 20:54:00,
2013-05-15 15:03:00,71.0,33.0,29.89,East,82,1.0,7.0,25,0.00,,,0.00,,2013-05-15 21:03:00,
2013-05-15 15:13:00,71.0,33.0,29.89,East,82,1.0,7.0,25,0.00,,,0.00,,2013-05-15 21:13:00,
2013-05-15 15:25:00,72.0,33.0,29.88,East,82,0.0,0.0,24,0.00,,,0.00,,2013-05-15 21:25:00,
2013-05-15 15:44:00,73.0,34.0,29.87,East,88,1.0,5.0,24,0.00,,,0.00,,2013-05-15 21:44:00,
2013-05-15 15:57:00,72.0,32.0,29.86,East,88,0.0,5.0,23,0.00,,,0.00,,2013-05-15 21:57:00,
2013-05-15 16:03:00,72.0,31.0,29.86,NNW,338,6.0,11.0,22,0.00,,,0.00,,2013-05-15 22:03:00,
2013-05-15 16:15:00,72.0,31.0,29.86,NNW,338,6.0,11.0,22,0.00,,,0.00,,2013-05-15 22:15:00,
2013-05-15 16:25:00,72.0,31.0,29.85,NNW,329,8.0,13.0,22,0.00,,,0.00,,2013-05-15 22:25:00,
2013-05-15 16:34:00,73.0,33.0,29.85,NNW,337,8.0,12.0,23,0.00,,,0.00,,2013-05-15 22:34:00,
2013-05-15 16:44:00,73.0,33.0,29.85,NNW,337,8.0,12.0,23,0.00,,,0.00,,2013-05-15 22:44:00,
2013-05-15 17:02:00,73.0,32.0,29.84,West,276,5.0,8.0,22,0.00,,,0.00,,2013-05-15 23:02:00,
2013-05-15 17:12:00,73.0,32.0,29.84,West,276,5.0,8.0,22,0.00,,,0.00,,2013-05-15 23:12:00,
2013-05-15 17:23:00,73.0,31.0,29.84,NW,321,2.0,8.0,21,0.00,,,0.00,,2013-05-15 23:23:00,
2013-05-15 17:33:00,74.0,32.0,29.83,West,274,1.0,6.0,21,0.00,,,0.00,,2013-05-15 23:33:00,
2013-05-15 17:43:00,74.0,32.0,29.83,West,274,1.0,6.0,21,0.00,,,0.00,,2013-05-15 23:43:00,
2013-05-15 17:57:00,74.0,32.0,29.83,NW,317,5.0,13.0,21,0.00,,,0.00,,2013-05-15 23:57:00,
2013-05-15 18:23:00,76.0,31.0,29.83,West,267,1.0,7.0,19,0.00,,,0.00,,2013-05-16 00:23:00,
2013-05-15 18:33:00,75.0,32.0,29.83,SSW,204,6.0,11.0,21,0.00,,,0.00,,2013-05-16 00:33:00,
2013-05-15 18:43:00,73.0,35.0,29.83,WNW,284,19.0,22.0,25,0.00,,,0.00,,2013-05-16 00:43:00,
2013-05-15 18:56:00,73.0,35.0,29.83,WNW,284,19.0,22.0,25,0.00,,,0.00,,2013-05-16 00:56:00,
2013-05-15 19:02:00,72.0,35.0,29.82,West,266,15.0,21.0,26,0.00,,,0.00,,2013-05-16 01:02:00,
2013-05-15 19:12:00,72.0,34.0,29.81,WNW,303,10.0,18.0,25,0.00,,,0.00,,2013-05-16 01:12:00,
2013-05-15 19:23:00,72.0,34.0,29.81,WNW,303,10.0,18.0,25,0.00,,,0.00,,2013-05-16 01:23:00,
2013-05-15 19:32:00,72.0,33.0,29.80,NNW,327,5.0,7.0,24,0.00,,,0.00,,2013-05-16 01:32:00,
2013-05-15 19:43:00,72.0,33.0,29.80,NNW,327,5.0,7.0,24,0.00,,,0.00,,2013-05-16 01:43:00,
2013-05-15 19:56:00,72.0,33.0,29.80,NNW,327,2.0,4.0,24,0.00,,,0.00,,2013-05-16 01:56:00,
2013-05-15 20:03:00,73.0,36.0,29.80,NNW,327,2.0,2.0,26,0.00,,,0.00,,2013-05-16 02:03:00,
2013-05-15 20:12:00,73.0,36.0,29.80,NNW,327,2.0,2.0,26,0.00,,,0.00,,2013-05-16 02:12:00,
2013-05-15 20:24:00,73.0,35.0,29.80,NNW,327,1.0,4.0,25,0.00,,,0.00,,2013-05-16 02:24:00,
2013-05-15 20:33:00,72.0,34.0,29.80,NNW,327,0.0,0.0,25,0.00,,,0.00,,2013-05-16 02:33:00,
2013-05-15 20:42:00,72.0,34.0,29.80,NNW,327,0.0,0.0,25,0.00,,,0.00,,2013-05-16 02:42:00,
2013-05-15 21:02:00,68.0,36.0,29.80,NE,38,1.0,6.0,31,0.00,,,0.00,,2013-05-16 03:02:00,
2013-05-15 21:12:00,68.0,36.0,29.80,NE,38,1.0,6.0,31,0.00,,,0.00,,2013-05-16 03:12:00,
2013-05-15 21:33:00,69.0,36.0,29.83,WNW,290,9.0,12.0,30,0.00,,,0.00,,2013-05-16 03:33:00,
2013-05-15 21:43:00,69.0,36.0,29.83,WNW,290,9.0,12.0,30,0.00,,,0.00,,2013-05-16 03:43:00,
2013-05-15 21:56:00,69.0,35.0,29.82,WNW,296,13.0,16.0,29,0.00,,,0.00,,2013-05-16 03:56:00,
2013-05-15 22:02:00,68.0,35.0,29.83,NW,311,9.0,14.0,30,0.00,,,0.00,,2013-05-16 04:02:00,
2013-05-15 22:12:00,68.0,35.0,29.83,NW,311,9.0,14.0,30,0.00,,,0.00,,2013-05-16 04:12:00,
2013-05-15 22:22:00,68.0,36.0,29.83,NW,312,14.0,19.0,31,0.00,,,0.00,,2013-05-16 04:22:00,
2013-05-15 22:32:00,67.0,36.0,29.83,NW,315,11.0,19.0,32,0.00,,,0.00,,2013-05-16 04:32:00,
2013-05-15 22:42:00,67.0,36.0,29.83,NW,315,11.0,19.0,32,0.00,,,0.00,,2013-05-16 04:42:00,
2013-05-15 22:53:00,67.0,36.0,29.84,West,277,9.0,13.0,32,0.00,,,0.00,,2013-05-16 04:53:00,
2013-05-15 23:02:00,66.0,36.0,29.85,West,263,13.0,16.0,33,0.00,,,0.00,,2013-05-16 05:02:00,
2013-05-15 23:12:00,66.0,36.0,29.85,West,263,13.0,16.0,33,0.00,,,0.00,,2013-05-16 05:12:00,
2013-05-15 23:22:00,65.0,36.0,29.86,West,266,16.0,22.0,34,0.00,,,0.00,,2013-05-16 05:22:00,
2013-05-15 23:32:00,65.0,37.0,29.85,WNW,289,16.0,21.0,35,0.00,,,0.00,,2013-05-16 05:32:00,
2013-05-15 23:42:00,65.0,37.0,29.85,WNW,289,16.0,21.0,35,0.00,,,0.00,,2013-05-16 05:42:00,
2013-05-15 23:52:00,64.0,37.0,29.85,WNW,296,14.0,19.0,36,0.00,,,0.00,,2013-05-16 05:52:00,